createdAt,value
2023-11-18T00:00:53.970Z,1.00
2023-11-18T00:05:45.755Z,0.80
2023-11-18T00:10:37.611Z,0.82
2023-11-18T00:15:29.441Z,0.90
2023-11-18T00:20:21.727Z,0.70
2023-11-18T00:25:15.542Z,0.63
2023-11-18T00:30:12.418Z,0.77
2023-11-18T00:35:06.061Z,0.80
2023-11-18T00:39:58.279Z,0.55
2023-11-18T00:44:50.167Z,0.50
2023-11-18T00:49:42.032Z,0.77
2023-11-18T00:54:34.175Z,0.63
2023-11-18T00:59:25.957Z,0.70
2023-11-18T01:04:17.710Z,0.70
2023-11-18T01:09:10.886Z,0.70
2023-11-18T01:14:03.565Z,0.77
2023-11-18T01:18:55.916Z,0.73
2023-11-18T01:23:47.784Z,0.50
2023-11-18T01:28:43.830Z,0.85
2023-11-18T01:33:38.717Z,0.70
2023-11-18T01:38:31.938Z,0.70
2023-11-18T01:43:24.511Z,0.60
2023-11-18T01:48:17.246Z,0.98
2023-11-18T01:53:11.209Z,0.60
2023-11-18T01:58:09.982Z,0.65
2023-11-18T02:03:02.096Z,0.60
2023-11-18T02:07:54.483Z,0.50
2023-11-18T02:12:57.956Z,0.80
2023-11-18T02:17:53.066Z,0.50
2023-11-18T02:22:47.758Z,0.60
2023-11-18T02:27:39.893Z,0.93
2023-11-18T02:32:38.790Z,0.90
2023-11-18T02:37:34.092Z,0.80
2023-11-18T02:42:26.346Z,0.75
2023-11-18T02:47:18.161Z,0.50
2023-11-18T02:52:11.224Z,0.70
2023-11-18T02:57:03.068Z,0.65
2023-11-18T03:01:56.359Z,0.70
2023-11-18T03:06:49.299Z,0.65
2023-11-18T03:11:41.088Z,0.63
2023-11-18T03:16:32.941Z,0.70
2023-11-18T03:21:25.163Z,0.75
2023-11-18T03:26:16.987Z,0.80
2023-11-18T03:31:09.160Z,0.93
2023-11-18T03:36:01.040Z,0.60
2023-11-18T03:40:53.596Z,0.70
2023-11-18T03:45:45.473Z,0.63
2023-11-18T03:50:37.306Z,0.70
2023-11-18T03:55:29.203Z,0.70
2023-11-18T04:00:21.339Z,0.65
2023-11-18T04:05:13.841Z,0.70
2023-11-18T04:10:11.351Z,0.68
2023-11-18T04:15:05.894Z,0.80
2023-11-18T04:19:57.986Z,0.82
2023-11-18T04:24:50.003Z,0.70
2023-11-18T04:29:41.775Z,0.90
2023-11-18T04:34:34.342Z,0.55
2023-11-18T04:39:26.728Z,0.57
2023-11-18T04:44:19.271Z,0.90
2023-11-18T04:49:11.741Z,1.35
2023-11-18T04:54:04.732Z,1.00
2023-11-18T04:58:56.540Z,0.70
2023-11-18T05:03:48.470Z,0.75
2023-11-18T05:08:40.650Z,0.75
2023-11-18T05:13:32.601Z,0.50
2023-11-18T05:18:24.489Z,0.57
2023-11-18T05:23:16.370Z,0.70
2023-11-18T05:28:11.103Z,0.82
2023-11-18T05:33:07.196Z,0.80
2023-11-18T05:37:59.072Z,0.70
2023-11-18T05:42:53.210Z,0.70
2023-11-18T05:47:45.052Z,0.93
2023-11-18T05:52:36.973Z,1.00
2023-11-18T05:57:28.809Z,1.10
2023-11-18T06:02:20.754Z,1.40
2023-11-18T06:07:14.721Z,1.23
2023-11-18T06:12:10.204Z,1.30
2023-11-18T06:17:02.138Z,1.15
2023-11-18T06:21:53.899Z,1.27
2023-11-18T06:26:46.189Z,0.90
2023-11-18T06:31:38.111Z,1.25
2023-11-18T06:36:32.371Z,1.08
2023-11-18T06:41:25.331Z,1.00
2023-11-18T06:46:17.624Z,1.02
2023-11-18T06:51:09.424Z,1.52
2023-11-18T06:56:01.508Z,1.58
2023-11-18T07:00:53.464Z,1.00
2023-11-18T07:05:45.673Z,0.80
2023-11-18T07:10:39.389Z,0.63
2023-11-18T07:15:31.818Z,0.75
2023-11-18T07:20:23.673Z,0.70
2023-11-18T07:25:15.435Z,0.73
2023-11-18T07:30:11.616Z,0.68
2023-11-18T07:35:03.704Z,0.93
2023-11-18T07:39:56.485Z,1.13
2023-11-18T07:44:49.222Z,0.88
2023-11-18T07:49:42.236Z,0.93
2023-11-18T07:54:34.581Z,0.80
2023-11-18T07:59:27.537Z,0.80
2023-11-18T08:04:22.276Z,0.60
2023-11-18T08:09:15.416Z,1.10
2023-11-18T08:14:07.425Z,0.90
2023-11-18T08:18:59.234Z,1.10
2023-11-18T08:23:53.386Z,0.85
2023-11-18T08:28:46.975Z,1.10
2023-11-18T08:33:38.772Z,1.10
2023-11-18T08:38:30.925Z,1.33
2023-11-18T08:43:22.809Z,0.82
2023-11-18T08:48:14.940Z,1.10
2023-11-18T08:53:07.180Z,0.85
2023-11-18T08:58:05.109Z,1.20
2023-11-18T09:03:02.573Z,1.00
2023-11-18T09:07:59.095Z,1.10
2023-11-18T09:12:51.252Z,1.50
2023-11-18T09:17:46.452Z,1.00
2023-11-18T09:22:38.631Z,1.23
2023-11-18T09:27:30.646Z,1.40
2023-11-18T09:32:27.577Z,1.00
2023-11-18T09:37:20.042Z,1.00
2023-11-18T09:42:15.589Z,0.98
2023-11-18T09:47:13.153Z,0.90
2023-11-18T09:52:09.497Z,0.70
2023-11-18T09:57:14.367Z,0.90
2023-11-18T10:02:08.294Z,0.70
2023-11-18T10:07:03.928Z,0.80
2023-11-18T10:12:01.831Z,0.75
2023-11-18T10:16:55.423Z,0.90
2023-11-18T10:21:50.806Z,0.80
2023-11-18T10:26:46.422Z,0.68
2023-11-18T10:31:38.825Z,0.60
2023-11-18T10:36:32.874Z,3.03
2023-11-18T10:41:25.280Z,2.85
2023-11-18T10:46:18.303Z,1.80
2023-11-18T10:51:14.341Z,1.92
2023-11-18T10:56:07.094Z,1.73
2023-11-18T11:01:01.775Z,2.00
2023-11-18T11:05:55.877Z,1.73
2023-11-18T11:10:49.952Z,2.28
2023-11-18T11:15:54.993Z,1.88
2023-11-18T11:21:16.727Z,2.60
2023-11-18T11:31:33.711Z,7.50
2023-11-18T11:36:32.773Z,5.03
2023-11-18T11:41:28.120Z,3.47
2023-11-18T11:46:24.729Z,3.03
2023-11-18T11:51:38.667Z,4.88
2023-11-18T11:57:01.089Z,3.33
2023-11-18T12:01:54.294Z,2.72
2023-11-18T12:06:48.185Z,1.67
2023-11-18T12:11:47.524Z,1.65
2023-11-18T12:17:18.823Z,1.70
2023-11-18T12:22:14.475Z,1.00
2023-11-18T12:27:12.160Z,1.48
2023-11-18T12:32:04.703Z,1.30
2023-11-18T12:37:34.672Z,1.40
2023-11-18T12:42:42.106Z,1.60
2023-11-18T12:47:39.029Z,1.40
2023-11-18T12:52:30.889Z,1.67
2023-11-18T12:57:25.768Z,3.03
2023-11-18T13:02:24.937Z,1.45
2023-11-18T13:07:26.245Z,1.38
2023-11-18T13:12:21.395Z,1.73
2023-11-18T13:17:14.865Z,1.10
2023-11-18T13:22:09.694Z,1.40
2023-11-18T13:27:05.722Z,1.10
2023-11-18T13:31:59.330Z,1.40
2023-11-18T13:36:51.290Z,1.05
2023-11-18T13:41:43.325Z,1.08
2023-11-18T13:46:35.210Z,2.22
2023-11-18T13:51:27.244Z,2.08
2023-11-18T13:56:20.394Z,2.17
2023-11-18T14:01:16.183Z,2.08
2023-11-18T14:06:11.892Z,2.10
2023-11-18T14:11:11.461Z,1.20
2023-11-18T14:16:11.224Z,1.42
2023-11-18T14:21:03.503Z,1.58
2023-11-18T14:25:55.260Z,1.67
2023-11-18T14:30:47.183Z,1.33
2023-11-18T14:35:39.254Z,1.10
2023-11-18T14:40:31.087Z,1.13
2023-11-18T14:45:23.149Z,1.30
2023-11-18T14:50:20.096Z,1.33
2023-11-18T14:55:13.706Z,1.63
2023-11-18T15:00:08.868Z,1.40
2023-11-18T15:05:00.774Z,1.25
2023-11-18T15:09:53.336Z,1.33
2023-11-18T15:14:45.263Z,1.67
2023-11-18T15:19:37.103Z,0.98
2023-11-18T15:24:28.951Z,1.00
2023-11-18T15:29:21.042Z,1.30
2023-11-18T15:34:13.665Z,1.10
2023-11-18T15:39:05.590Z,1.20
2023-11-18T15:43:57.683Z,1.20
2023-11-18T15:48:49.573Z,1.50
2023-11-18T15:53:41.739Z,1.60
2023-11-18T15:58:33.889Z,1.75
2023-11-18T16:03:25.794Z,1.55
2023-11-18T16:08:17.651Z,1.80
2023-11-18T16:13:09.470Z,2.20
2023-11-18T16:18:02.223Z,2.45
2023-11-18T16:22:55.967Z,2.03
2023-11-18T16:27:48.975Z,1.80
2023-11-18T16:32:41.045Z,2.00
2023-11-18T16:37:32.910Z,3.03
2023-11-18T16:42:29.434Z,4.32
2023-11-18T16:47:21.330Z,3.92
2023-11-18T16:52:13.190Z,4.90
2023-11-18T16:57:06.548Z,5.35
2023-11-18T17:01:58.949Z,4.18
2023-11-18T17:06:50.891Z,3.90
2023-11-18T17:11:42.668Z,3.80
2023-11-18T17:16:34.555Z,3.53
2023-11-18T17:21:27.933Z,4.30
2023-11-18T17:26:19.820Z,3.42
2023-11-18T17:31:12.795Z,2.90
2023-11-18T17:36:04.797Z,3.28
2023-11-18T17:40:57.024Z,2.85
2023-11-18T17:45:49.730Z,3.58
2023-11-18T17:50:41.590Z,3.72
2023-11-18T17:55:33.432Z,4.25
2023-11-18T18:00:28.726Z,4.35
2023-11-18T18:05:21.174Z,4.03
2023-11-18T18:10:17.177Z,3.83
2023-11-18T18:15:10.020Z,4.75
2023-11-18T18:20:01.917Z,7.88
2023-11-18T18:24:53.711Z,7.63
2023-11-18T18:29:45.545Z,5.40
2023-11-18T18:34:37.985Z,6.30
2023-11-18T18:39:30.171Z,5.75
2023-11-18T18:44:22.721Z,14.45
2023-11-18T18:49:17.551Z,13.57
2023-11-18T18:54:10.504Z,10.20
2023-11-18T18:59:03.301Z,8.13
2023-11-18T19:03:55.144Z,9.00
2023-11-18T19:08:46.987Z,8.02
2023-11-18T19:13:38.765Z,6.22
2023-11-18T19:18:30.727Z,6.07
2023-11-18T19:23:22.545Z,5.80
2023-11-18T19:28:14.954Z,5.63
2023-11-18T19:33:06.848Z,4.90
2023-11-18T19:38:01.198Z,5.10
2023-11-18T19:42:53.031Z,6.30
2023-11-18T19:47:44.868Z,4.50
2023-11-18T19:52:36.684Z,5.05
2023-11-18T19:57:28.533Z,5.72
2023-11-18T20:02:20.356Z,4.78
2023-11-18T20:07:12.253Z,5.35
2023-11-18T20:12:05.491Z,5.38
2023-11-18T20:16:57.618Z,9.32
2023-11-18T20:21:50.059Z,6.80
2023-11-18T20:26:41.981Z,7.00
2023-11-18T20:31:33.999Z,6.85
2023-11-18T20:36:25.765Z,7.45
2023-11-18T20:41:20.855Z,5.75
2023-11-18T20:46:12.998Z,4.93
2023-11-18T20:51:06.183Z,4.65
2023-11-18T20:55:57.920Z,5.07
2023-11-18T21:00:50.271Z,4.75
2023-11-18T21:05:42.338Z,5.43
2023-11-18T21:10:35.460Z,5.22
2023-11-18T21:15:27.327Z,5.88
2023-11-18T21:20:20.188Z,6.68
2023-11-18T21:25:13.636Z,5.88
2023-11-18T21:30:06.415Z,5.82
2023-11-18T21:34:58.302Z,4.95
2023-11-18T21:39:50.104Z,4.43
2023-11-18T21:44:42.021Z,4.88
2023-11-18T21:49:33.894Z,3.53
2023-11-18T21:54:26.402Z,2.83
2023-11-18T21:59:18.342Z,3.20
2023-11-18T22:04:11.521Z,3.38
2023-11-18T22:09:03.622Z,3.00
2023-11-18T22:13:55.537Z,3.00
2023-11-18T22:18:47.750Z,3.28
2023-11-18T22:23:39.612Z,4.00
2023-11-18T22:28:34.398Z,4.68
2023-11-18T22:33:26.825Z,10.57
2023-11-18T22:38:18.670Z,7.93
2023-11-18T22:43:10.551Z,7.90
2023-11-18T22:48:02.990Z,8.27
2023-11-18T22:52:56.346Z,7.50
2023-11-18T22:57:48.086Z,6.72
2023-11-18T23:02:41.798Z,5.32
2023-11-18T23:07:33.942Z,5.63
2023-11-18T23:12:27.854Z,3.80
2023-11-18T23:17:22.547Z,3.45
2023-11-18T23:22:15.027Z,3.50
2023-11-18T23:27:08.385Z,3.05
2023-11-18T23:32:00.556Z,3.00
2023-11-18T23:36:52.695Z,3.38
2023-11-18T23:41:44.538Z,4.05
2023-11-18T23:46:36.371Z,3.70
2023-11-18T23:51:29.529Z,3.17
2023-11-18T23:56:21.446Z,3.45
